Time;durP1;ratioP1;P1;durP2;ratioP2;P2;SDS_P1;SDS_P2;PMS_P1;PMS_P2;Temp;Humidity;BMP_temperature;BMP_pressure;BME280_temperature;BME280_humidity;BME280_pressure;Samples;Min_cycle;Max_cycle;Signal;HPM_P1;HPM_P2
2023/10/13 00:00:29;;;;;;;2.90;2.30;;;;;17.90;96154.00;;;;5053069;28;20265;-57
2023/10/13 00:03:00;;;;;;;2.73;1.63;;;;;17.90;96151.00;;;;5053408;28;20783;-56
2023/10/13 00:05:30;;;;;;;1.80;1.27;;;;;17.90;96150.00;;;;5053323;28;20262;-56
2023/10/13 00:08:00;;;;;;;1.50;1.40;;;;;17.80;96139.00;;;;5053174;28;20191;-57
2023/10/13 00:10:28;;;;;;;2.80;1.27;;;;;17.90;96144.00;;;;5053092;28;20190;-56
2023/10/13 00:13:05;;;;;;;0.90;0.90;;;;;17.80;96143.00;;;;5055284;28;20212;-56
2023/10/13 00:15:38;;;;;;;1.20;1.10;;;;;17.70;96140.00;;;;5057323;28;20184;-57
2023/10/13 00:18:12;;;;;;;1.60;1.50;;;;;17.80;96141.00;;;;5057448;28;20180;-57
2023/10/13 00:20:41;;;;;;;2.10;1.60;;;;;17.80;96152.00;;;;5057013;28;20231;-57
2023/10/13 00:23:08;;;;;;;1.63;0.97;;;;;17.70;96146.00;;;;5056469;28;20683;-57
2023/10/13 00:25:43;;;;;;;0.87;0.87;;;;;17.70;96142.00;;;;5056477;28;20670;-57
2023/10/13 00:28:11;;;;;;;1.33;1.23;;;;;17.70;96138.00;;;;5056501;28;20183;-55
2023/10/13 00:30:40;;;;;;;0.87;0.87;;;;;17.70;96139.00;;;;5056251;28;20196;-56
2023/10/13 00:33:09;;;;;;;1.27;0.87;;;;;17.60;96138.00;;;;5056226;28;20232;-57
2023/10/13 00:35:37;;;;;;;3.20;1.43;;;;;17.60;96134.00;;;;5056625;28;20192;-57
2023/10/13 00:38:12;;;;;;;1.83;1.73;;;;;17.50;96127.00;;;;5056789;28;20643;-58
2023/10/13 00:40:51;;;;;;;1.43;1.30;;;;;17.60;96129.00;;;;5056417;28;20749;-57
2023/10/13 00:43:37;;;;;;;2.17;1.83;;;;;17.50;96135.00;;;;5056710;28;20180;-56
2023/10/13 00:46:07;;;;;;;1.87;1.43;;;;;17.50;96133.00;;;;5056532;28;20215;-57
2023/10/13 00:48:42;;;;;;;0.60;0.60;;;;;17.50;96124.00;;;;5056106;28;20207;-58
2023/10/13 00:51:18;;;;;;;1.10;1.03;;;;;17.40;96133.00;;;;5056088;28;20227;-57
2023/10/13 00:53:47;;;;;;;1.27;1.23;;;;;17.50;96130.00;;;;5055999;28;20234;-57
2023/10/13 00:56:22;;;;;;;1.23;1.13;;;;;17.30;96134.00;;;;5055885;28;20220;-58
2023/10/13 00:58:52;;;;;;;1.07;1.07;;;;;17.10;96133.00;;;;5056391;28;20187;-56
2023/10/13 01:01:21;;;;;;;0.90;0.90;;;;;17.20;96109.00;;;;5056240;28;20313;-56
2023/10/13 01:03:55;;;;;;;0.90;0.90;;;;;17.10;96126.00;;;;5038588;28;20659;-59
2023/10/13 01:06:27;;;;;;;8.63;1.33;;;;;17.10;96125.00;;;;5038097;28;20219;-57
2023/10/13 01:09:10;;;;;;;1.83;1.73;;;;;17.00;96125.00;;;;5055700;28;20185;-57
2023/10/13 01:11:37;;;;;;;1.40;1.27;;;;;17.00;96125.00;;;;5055624;28;20216;-57
2023/10/13 01:14:06;;;;;;;0.83;0.80;;;;;16.90;96126.00;;;;5055682;28;20227;-57
2023/10/13 01:16:35;;;;;;;2.20;2.00;;;;;16.90;96120.00;;;;5055767;28;20203;-62
2023/10/13 01:19:05;;;;;;;1.63;1.53;;;;;16.90;96115.00;;;;5055505;28;20207;-57
2023/10/13 01:21:33;;;;;;;1.43;1.40;;;;;16.90;96123.00;;;;5055375;28;20224;-57
2023/10/13 01:24:07;;;;;;;0.80;0.80;;;;;16.90;96126.00;;;;5054598;28;20196;-58
2023/10/13 01:26:38;;;;;;;1.20;1.10;;;;;16.90;96110.00;;;;5055529;28;20186;-57
2023/10/13 01:29:13;;;;;;;0.83;0.83;;;;;16.80;96118.00;;;;5056099;28;20186;-57
2023/10/13 01:31:45;;;;;;;1.10;1.10;;;;;16.80;96109.00;;;;5055928;28;20778;-56
2023/10/13 01:34:14;;;;;;;1.20;1.10;;;;;16.80;96114.00;;;;5055979;28;20184;-56
2023/10/13 01:36:41;;;;;;;1.47;1.37;;;;;16.70;96105.00;;;;5055164;28;20192;-57
2023/10/13 01:39:16;;;;;;;1.63;1.53;;;;;16.70;96100.00;;;;5055143;28;20200;-56
2023/10/13 01:41:43;;;;;;;0.83;0.83;;;;;16.70;96098.00;;;;5055489;28;20247;-56
2023/10/13 01:44:12;;;;;;;0.97;0.97;;;;;16.80;96101.00;;;;5055019;28;20207;-56
2023/10/13 01:46:38;;;;;;;7.13;2.23;;;;;16.60;96095.00;;;;5054962;28;20192;-56
2023/10/13 01:49:07;;;;;;;1.40;1.30;;;;;16.60;96096.00;;;;5054871;28;20200;-56
2023/10/13 01:51:34;;;;;;;2.03;1.77;;;;;16.20;96088.00;;;;5054741;28;20216;-56
2023/10/13 01:54:02;;;;;;;1.87;1.27;;;;;16.50;96096.00;;;;5054913;28;20305;-56
2023/10/13 01:56:31;;;;;;;1.10;1.10;;;;;16.30;96097.00;;;;5037059;28;20287;-57
2023/10/13 01:58:58;;;;;;;1.17;1.13;;;;;16.30;96100.00;;;;5055209;28;20204;-57
2023/10/13 02:01:33;;;;;;;0.80;0.80;;;;;16.30;96092.00;;;;5036656;28;20220;-57
2023/10/13 02:04:03;;;;;;;0.70;0.70;;;;;16.40;96092.00;;;;5054853;28;20637;-57
2023/10/13 02:06:33;;;;;;;1.00;1.00;;;;;16.30;96088.00;;;;5055161;28;20181;-57
2023/10/13 02:09:12;;;;;;;1.03;1.03;;;;;16.50;96077.00;;;;5055526;28;20216;-57
2023/10/13 02:11:41;;;;;;;1.07;1.07;;;;;16.50;96081.00;;;;5054829;28;20215;-57
2023/10/13 02:14:11;;;;;;;18.20;1.73;;;;;16.30;96079.00;;;;5054597;28;20192;-57
2023/10/13 02:16:38;;;;;;;0.63;0.63;;;;;16.20;96067.00;;;;5054372;28;20192;-56
2023/10/13 02:19:05;;;;;;;0.90;0.90;;;;;16.40;96060.00;;;;5054395;28;20188;-57
2023/10/13 02:21:34;;;;;;;4.07;1.80;;;;;16.10;96062.00;;;;5054187;28;20223;-57
2023/10/13 02:24:04;;;;;;;1.03;1.03;;;;;16.10;96055.00;;;;5054623;28;20196;-57
2023/10/13 02:26:31;;;;;;;1.13;1.10;;;;;16.20;96068.00;;;;5054444;28;20200;-57
2023/10/13 02:29:03;;;;;;;0.80;0.80;;;;;16.20;96063.00;;;;5054021;28;20279;-57
2023/10/13 02:31:30;;;;;;;0.90;0.90;;;;;16.20;96060.00;;;;5054168;28;20204;-57
2023/10/13 02:33:57;;;;;;;2.03;1.80;;;;;16.20;96054.00;;;;5054451;28;20667;-57
2023/10/13 02:36:35;;;;;;;2.40;1.57;;;;;16.20;96056.00;;;;5054115;28;20192;-57
2023/10/13 02:39:07;;;;;;;1.53;1.17;;;;;16.20;96053.00;;;;5054294;28;20237;-56
2023/10/13 02:41:37;;;;;;;1.60;1.50;;;;;16.20;96052.00;;;;5054110;28;20319;-57
2023/10/13 02:44:07;;;;;;;1.80;1.67;;;;;16.20;96055.00;;;;5054040;28;20279;-57
2023/10/13 02:46:39;;;;;;;0.90;0.90;;;;;16.10;96057.00;;;;5053945;28;20203;-57
2023/10/13 02:49:10;;;;;;;1.23;1.20;;;;;16.10;96053.00;;;;5053807;28;20184;-57
2023/10/13 02:51:37;;;;;;;0.80;0.80;;;;;16.10;96047.00;;;;5053938;28;20212;-57
2023/10/13 02:54:10;;;;;;;1.13;1.13;;;;;16.00;96047.00;;;;5053669;28;20294;-57
2023/10/13 02:56:37;;;;;;;1.07;1.07;;;;;16.00;96049.00;;;;5053692;28;20177;-57
2023/10/13 02:59:06;;;;;;;1.07;1.07;;;;;16.10;96045.00;;;;5053863;28;20200;-57
2023/10/13 03:01:34;;;;;;;1.00;1.00;;;;;16.00;96046.00;;;;5053418;28;20572;-57
2023/10/13 03:04:03;;;;;;;0.97;0.97;;;;;16.10;96036.00;;;;5053680;28;20188;-57
2023/10/13 03:06:32;;;;;;;1.27;1.17;;;;;16.10;96037.00;;;;5053751;28;20194;-57
2023/10/13 03:09:14;;;;;;;0.93;0.93;;;;;15.90;96031.00;;;;5053450;28;20245;-57
2023/10/13 03:11:42;;;;;;;0.90;0.90;;;;;16.00;96030.00;;;;5053329;28;20286;-56
2023/10/13 03:14:23;;;;;;;0.80;0.80;;;;;15.90;96030.00;;;;5053386;28;20191;-56
2023/10/13 03:16:50;;;;;;;1.07;1.07;;;;;15.90;96035.00;;;;5053640;28;20189;-56
2023/10/13 03:19:19;;;;;;;2.20;1.43;;;;;15.90;96026.00;;;;5053375;28;20220;-56
2023/10/13 03:21:54;;;;;;;1.83;1.47;;;;;15.90;96027.00;;;;5053158;28;20637;-55
2023/10/13 03:24:33;;;;;;;11.57;2.03;;;;;15.90;96020.00;;;;5053487;28;20200;-56
2023/10/13 03:27:08;;;;;;;1.63;1.53;;;;;15.70;96031.00;;;;5053104;28;20267;-56
2023/10/13 03:29:38;;;;;;;1.30;1.23;;;;;15.70;96020.00;;;;5052977;28;20282;-56
2023/10/13 03:32:11;;;;;;;2.07;1.93;;;;;15.70;96028.00;;;;5053561;28;20204;-56
2023/10/13 03:34:49;;;;;;;1.47;1.37;;;;;15.40;96028.00;;;;5053337;28;20187;-56
2023/10/13 03:37:19;;;;;;;1.47;1.37;;;;;15.40;96029.00;;;;5053017;28;20180;-56
2023/10/13 03:39:46;;;;;;;1.07;1.07;;;;;15.50;95997.00;;;;5053582;28;20714;-56
2023/10/13 03:42:18;;;;;;;1.17;1.17;;;;;15.60;96020.00;;;;5053029;28;20224;-56
2023/10/13 03:44:47;;;;;;;1.87;1.70;;;;;15.80;96018.00;;;;5053296;28;20621;-56
2023/10/13 03:47:26;;;;;;;1.17;1.17;;;;;15.70;96011.00;;;;5053032;28;20207;-56
2023/10/13 03:50:14;;;;;;;2.70;1.57;;;;;15.80;96014.00;;;;5053595;28;20543;-55
2023/10/13 03:52:42;;;;;;;1.70;1.60;;;;;15.80;96008.00;;;;5052778;28;20237;-55
2023/10/13 03:55:17;;;;;;;0.63;0.63;;;;;15.80;96009.00;;;;5053445;28;20196;-56
2023/10/13 03:57:45;;;;;;;0.97;0.97;;;;;15.80;96007.00;;;;5053099;28;20187;-56
2023/10/13 04:00:22;;;;;;;0.80;0.80;;;;;15.80;96007.00;;;;5052801;28;20279;-56
2023/10/13 04:03:03;;;;;;;0.90;0.90;;;;;15.80;96017.00;;;;5052753;28;20211;-56
2023/10/13 04:05:38;;;;;;;1.50;1.40;;;;;15.60;96011.00;;;;5053059;28;20184;-57
2023/10/13 04:16:37;;;;;;;1.27;1.27;;;;;15.50;96018.00;;;;5053056;28;20183;-57
2023/10/13 04:19:09;;;;;;;1.70;1.57;;;;;15.60;96014.00;;;;5052782;28;20195;-57
2023/10/13 04:21:42;;;;;;;1.30;1.20;;;;;15.50;96015.00;;;;5052855;28;20224;-57
2023/10/13 04:24:28;;;;;;;1.50;1.40;;;;;15.40;96013.00;;;;5052909;28;20540;-57
2023/10/13 04:29:51;;;;;;;1.60;1.50;;;;;15.40;96014.00;;;;5052615;28;20200;-56
2023/10/13 04:32:28;;;;;;;1.07;1.07;;;;;15.40;96007.00;;;;5052616;28;20208;-57
2023/10/13 04:34:59;;;;;;;1.53;1.43;;;;;15.30;96004.00;;;;5052867;28;20267;-57
2023/10/13 04:37:29;;;;;;;0.70;0.70;;;;;15.30;95998.00;;;;5052578;28;20195;-57
2023/10/13 04:40:07;;;;;;;2.03;1.83;;;;;15.40;95994.00;;;;5052795;28;20196;-57
2023/10/13 04:42:49;;;;;;;1.03;1.03;;;;;15.40;96003.00;;;;5052457;28;20706;-56
2023/10/13 04:45:38;;;;;;;2.33;1.83;;;;;15.50;96001.00;;;;5052412;28;20180;-56
2023/10/13 04:51:49;;;;;;;0.80;0.80;;;;;15.80;96000.00;;;;5052023;28;20681;-56
2023/10/13 04:54:00;;;;;;;1.50;1.40;;;;;15.80;95994.00;;;;5052295;28;20208;-56
2023/10/13 04:59:37;;;;;;;1.23;1.23;;;;;15.80;95989.00;;;;5091375;28;20560;-55
2023/10/13 05:49:29;;;;;;;1.00;0.97;;;;;16.00;95959.00;;;;5089732;28;20262;-57
2023/10/13 05:52:06;;;;;;;2.13;1.97;;;;;16.00;95959.00;;;;5089862;28;20211;-56
2023/10/13 06:30:28;;;;;;;0.90;0.90;;;;;16.10;95976.00;;;;5072803;28;20199;-57
2023/10/13 06:32:55;;;;;;;1.63;1.53;;;;;16.10;95979.00;;;;5073899;28;20234;-57
2023/10/13 06:35:23;;;;;;;1.87;1.43;;;;;16.20;95977.00;;;;5073634;28;20195;-56
2023/10/13 06:37:53;;;;;;;3.07;1.63;;;;;16.20;95979.00;;;;5072683;28;20671;-56
2023/10/13 06:40:25;;;;;;;1.80;1.70;;;;;16.20;95973.00;;;;5074099;28;20278;-56
2023/10/13 06:43:11;;;;;;;1.50;1.40;;;;;16.20;95973.00;;;;5073645;28;20251;-57
2023/10/13 06:45:39;;;;;;;1.10;1.07;;;;;16.30;95966.00;;;;5073653;28;20673;-56
2023/10/13 06:48:11;;;;;;;0.93;0.93;;;;;16.30;95966.00;;;;5071899;28;20700;-57
2023/10/13 06:50:41;;;;;;;1.60;1.50;;;;;16.30;95963.00;;;;5073460;28;20192;-57
2023/10/13 06:53:12;;;;;;;0.90;0.90;;;;;16.50;95962.00;;;;5071797;28;20211;-56
2023/10/13 06:55:40;;;;;;;2.93;1.40;;;;;16.60;95961.00;;;;5073796;28;20188;-56
2023/10/13 06:58:13;;;;;;;1.20;1.20;;;;;16.70;95959.00;;;;5073055;28;20215;-56
2023/10/13 07:00:41;;;;;;;0.90;0.90;;;;;16.70;95959.00;;;;5073197;28;20198;-56
2023/10/13 07:03:17;;;;;;;0.70;0.70;;;;;16.80;95962.00;;;;5072927;28;20215;-56
2023/10/13 07:05:47;;;;;;;0.90;0.90;;;;;16.80;95953.00;;;;5073457;28;20195;-56
2023/10/13 07:08:19;;;;;;;1.43;1.33;;;;;16.90;95935.00;;;;5073013;28;20188;-56
2023/10/13 07:11:02;;;;;;;1.63;1.53;;;;;17.00;95956.00;;;;5072083;28;20191;-56
2023/10/13 07:13:30;;;;;;;1.80;1.70;;;;;17.00;95967.00;;;;5072780;28;20238;-56
2023/10/13 07:16:05;;;;;;;2.57;1.33;;;;;17.20;95970.00;;;;5072986;28;20753;-55
2023/10/13 07:18:36;;;;;;;3.40;1.60;;;;;17.10;95972.00;;;;5071907;28;20750;-55
2023/10/13 07:21:09;;;;;;;1.13;1.13;;;;;17.30;95961.00;;;;5072241;28;20274;-55
2023/10/13 07:23:39;;;;;;;1.13;1.03;;;;;17.30;95966.00;;;;5072574;28;20192;-56
2023/10/13 07:26:08;;;;;;;1.13;1.13;;;;;17.30;95967.00;;;;5071793;28;20221;-55
2023/10/13 07:28:43;;;;;;;1.50;1.40;;;;;17.40;95967.00;;;;5070621;28;20285;-57
2023/10/13 07:31:13;;;;;;;1.90;1.57;;;;;17.30;95962.00;;;;5069537;28;20215;-56
2023/10/13 07:33:41;;;;;;;0.93;0.93;;;;;17.30;95963.00;;;;5071754;28;20691;-56
2023/10/13 07:36:17;;;;;;;1.77;1.67;;;;;17.50;95957.00;;;;5072714;28;20203;-58
2023/10/13 07:38:52;;;;;;;1.57;1.37;;;;;17.40;95952.00;;;;5072104;28;20210;-56
2023/10/13 07:41:22;;;;;;;1.30;1.30;;;;;17.60;95956.00;;;;5072750;28;20222;-57
2023/10/13 07:43:50;;;;;;;2.07;1.93;;;;;17.80;95960.00;;;;5070718;28;20207;-56
2023/10/13 07:46:24;;;;;;;1.10;1.10;;;;;17.80;95955.00;;;;5072837;28;20199;-57
2023/10/13 07:48:53;;;;;;;0.90;0.90;;;;;17.80;95952.00;;;;5072647;28;20643;-56
2023/10/13 07:51:22;;;;;;;1.10;0.93;;;;;17.90;95951.00;;;;5073058;28;20565;-55
2023/10/13 07:53:52;;;;;;;0.90;0.90;;;;;18.10;95953.00;;;;5071241;28;20195;-57
2023/10/13 07:56:20;;;;;;;5.43;1.43;;;;;18.20;95952.00;;;;5072430;28;20187;-57
2023/10/13 07:58:52;;;;;;;1.53;1.43;;;;;18.30;95944.00;;;;5071129;28;20535;-56
2023/10/13 08:01:19;;;;;;;1.13;1.13;;;;;18.30;95951.00;;;;5072618;28;20268;-55
2023/10/13 08:03:48;;;;;;;1.10;1.10;;;;;18.50;95953.00;;;;5072760;28;20203;-55
2023/10/13 08:09:08;;;;;;;1.17;1.17;;;;;18.60;95942.00;;;;5071752;28;20203;-56
2023/10/13 08:11:37;;;;;;;1.07;1.07;;;;;18.80;95947.00;;;;5067418;28;20250;-56
2023/10/13 08:14:12;;;;;;;1.30;1.20;;;;;19.00;95948.00;;;;5065919;28;20199;-58
2023/10/13 08:16:45;;;;;;;2.20;1.20;;;;;19.00;95944.00;;;;5068211;28;20549;-56
2023/10/13 08:19:15;;;;;;;1.47;1.37;;;;;19.10;95937.00;;;;5070873;28;20203;-56
2023/10/13 08:21:49;;;;;;;2.90;1.00;;;;;19.20;95940.00;;;;5070318;28;20223;-57
2023/10/13 08:24:27;;;;;;;1.07;1.07;;;;;19.50;95942.00;;;;5071894;28;20313;-56
2023/10/13 08:26:57;;;;;;;2.37;1.53;;;;;19.60;95943.00;;;;5071654;28;20191;-56
2023/10/13 08:32:36;;;;;;;0.87;0.87;;;;;19.80;95935.00;;;;5069160;28;21006;-56
2023/10/13 08:35:23;;;;;;;0.97;0.97;;;;;19.90;95935.00;;;;5071589;28;20195;-56
2023/10/13 08:38:13;;;;;;;1.50;1.40;;;;;20.00;95936.00;;;;5071453;28;20651;-57
2023/10/13 08:43:43;;;;;;;1.23;1.23;;;;;20.40;95938.00;;;;5062290;28;20692;-56
2023/10/13 08:46:24;;;;;;;4.13;1.83;;;;;20.60;95938.00;;;;5071309;28;20201;-57
2023/10/13 08:49:04;;;;;;;0.60;0.60;;;;;20.50;95933.00;;;;5071928;28;20184;-56
2023/10/13 08:51:45;;;;;;;1.40;1.40;;;;;20.50;95935.00;;;;5071526;28;20223;-57
2023/10/13 08:57:03;;;;;;;0.60;0.60;;;;;20.80;95929.00;;;;5069595;28;20222;-57
2023/10/13 08:59:38;;;;;;;1.03;1.00;;;;;20.90;95929.00;;;;5071168;28;20207;-57
2023/10/13 09:02:16;;;;;;;1.37;1.30;;;;;21.00;95920.00;;;;5070970;28;20214;-57
2023/10/13 09:04:44;;;;;;;1.10;1.10;;;;;21.20;95923.00;;;;5071156;28;20302;-57
2023/10/13 09:07:16;;;;;;;2.10;1.37;;;;;21.20;95929.00;;;;5071277;28;20199;-56
2023/10/13 09:09:59;;;;;;;20.80;1.87;;;;;21.30;95932.00;;;;5070366;28;20258;-56
2023/10/13 09:12:39;;;;;;;1.63;1.53;;;;;21.50;95914.00;;;;5067289;28;20748;-56
2023/10/13 09:15:19;;;;;;;0.60;0.60;;;;;21.50;95921.00;;;;5070966;28;20191;-56
2023/10/13 09:17:51;;;;;;;4.27;1.67;;;;;21.80;95919.00;;;;5071137;28;20656;-56
2023/10/13 09:20:32;;;;;;;1.33;1.30;;;;;21.80;95919.00;;;;5070087;28;20211;-56
2023/10/13 09:23:08;;;;;;;1.10;1.10;;;;;21.90;95915.00;;;;5071328;28;20610;-57
2023/10/13 09:25:37;;;;;;;2.53;1.33;;;;;22.10;95925.00;;;;5071513;28;20554;-57
2023/10/13 09:28:17;;;;;;;1.35;1.25;;;;;22.10;95911.00;;;;5071099;28;20202;-57
2023/10/13 09:30:44;;;;;;;0.93;0.93;;;;;22.40;95907.00;;;;5071435;28;20192;-57
2023/10/13 09:33:15;;;;;;;0.65;0.65;;;;;22.50;95903.00;;;;5071326;28;20201;-59
2023/10/13 09:35:48;;;;;;;1.73;1.63;;;;;22.50;95907.00;;;;5071076;28;20649;-57
2023/10/13 09:38:16;;;;;;;0.82;0.82;;;;;22.70;95907.00;;;;5071150;28;20676;-57
2023/10/13 09:40:49;;;;;;;3.17;1.77;;;;;23.00;95907.00;;;;5071023;28;20203;-56
2023/10/13 09:43:21;;;;;;;0.85;0.85;;;;;23.20;95907.00;;;;5071146;28;20280;-59
2023/10/13 09:46:01;;;;;;;1.00;0.88;;;;;23.30;95891.00;;;;5074046;28;20192;-56
2023/10/13 09:48:34;;;;;;;0.98;0.98;;;;;23.30;95902.00;;;;5074532;28;20514;-54
2023/10/13 09:51:03;;;;;;;16.63;1.73;;;;;23.30;95900.00;;;;5075141;28;20194;-56
2023/10/13 09:53:33;;;;;;;2.30;2.08;;;;;23.40;95885.00;;;;5071828;28;20290;-55
2023/10/13 09:56:12;;;;;;;0.98;0.98;;;;;23.80;95898.00;;;;5075124;28;20218;-56
2023/10/13 09:58:51;;;;;;;1.70;1.60;;;;;23.70;95891.00;;;;5073764;28;20215;-56
2023/10/13 10:01:30;;;;;;;0.63;0.63;;;;;23.50;95895.00;;;;5075052;28;20218;-56
2023/10/13 10:04:08;;;;;;;0.60;0.60;;;;;23.60;95891.00;;;;5071171;28;20198;-56
2023/10/13 10:06:47;;;;;;;0.80;0.80;;;;;23.80;95893.00;;;;5074475;28;20206;-57
2023/10/13 10:09:17;;;;;;;3.17;1.40;;;;;24.00;95897.00;;;;5073567;28;20195;-56
2023/10/13 10:12:07;;;;;;;0.73;0.73;;;;;23.80;95911.00;;;;5074579;28;20222;-56
2023/10/13 10:15:02;;;;;;;0.98;0.98;;;;;23.90;95892.00;;;;5074224;28;20194;-56
2023/10/13 10:17:33;;;;;;;0.65;0.65;;;;;23.90;95894.00;;;;5074436;28;20192;-57
2023/10/13 10:20:06;;;;;;;1.63;0.90;;;;;24.10;95884.00;;;;5074001;28;20568;-56
2023/10/13 10:22:36;;;;;;;0.68;0.68;;;;;24.10;95882.00;;;;5074156;28;20238;-58
2023/10/13 10:25:06;;;;;;;1.33;1.23;;;;;24.40;95880.00;;;;5073997;28;20675;-58
2023/10/13 10:27:35;;;;;;;0.75;0.75;;;;;24.50;95877.00;;;;5074368;28;20626;-58
2023/10/13 10:30:04;;;;;;;1.67;1.40;;;;;24.60;95881.00;;;;5074044;28;20246;-58
2023/10/13 10:32:36;;;;;;;0.60;0.60;;;;;24.60;95884.00;;;;5073450;28;21022;-59
2023/10/13 10:35:15;;;;;;;0.60;0.60;;;;;24.50;95878.00;;;;5074514;28;20195;-59
2023/10/13 10:37:47;;;;;;;1.48;1.38;;;;;24.60;95878.00;;;;5069055;28;20207;-56
2023/10/13 10:40:33;;;;;;;1.33;1.20;;;;;24.40;95868.00;;;;5069069;28;20204;-56
2023/10/13 10:43:04;;;;;;;0.80;0.80;;;;;24.70;95877.00;;;;5073534;28;20219;-56
2023/10/13 10:45:33;;;;;;;2.38;1.63;;;;;25.20;95856.00;;;;5073874;28;20275;-56
2023/10/13 10:48:17;;;;;;;1.00;1.00;;;;;25.00;95851.00;;;;5073837;28;20282;-56
2023/10/13 10:50:45;;;;;;;0.70;0.60;;;;;25.40;95846.00;;;;5073834;28;20187;-55
2023/10/13 10:53:12;;;;;;;1.02;1.02;;;;;25.50;95863.00;;;;5073557;28;20264;-55
2023/10/13 10:55:40;;;;;;;0.93;0.93;;;;;25.40;95853.00;;;;5073396;28;20203;-55
2023/10/13 10:58:28;;;;;;;1.15;1.08;;;;;25.50;95854.00;;;;5072917;28;20268;-55
2023/10/13 11:01:11;;;;;;;1.73;1.60;;;;;25.70;95839.00;;;;5072246;28;20567;-55
2023/10/13 11:03:41;;;;;;;1.15;1.15;;;;;26.10;95839.00;;;;5073267;28;20191;-55
2023/10/13 11:06:18;;;;;;;0.77;0.77;;;;;25.60;95836.00;;;;5072791;28;20195;-55
2023/10/13 11:08:52;;;;;;;0.80;0.80;;;;;25.60;95854.00;;;;5073457;28;20187;-56
2023/10/13 11:11:35;;;;;;;0.60;0.60;;;;;25.00;95836.00;;;;5073076;28;20239;-56
2023/10/13 11:14:17;;;;;;;1.20;1.20;;;;;25.00;95845.00;;;;5072832;28;20669;-56
2023/10/13 11:16:53;;;;;;;1.50;1.33;;;;;24.90;95831.00;;;;5073448;28;20647;-57
2023/10/13 11:19:25;;;;;;;0.60;0.60;;;;;25.20;95824.00;;;;5072966;28;20199;-56
2023/10/13 11:21:55;;;;;;;1.02;1.02;;;;;25.20;95826.00;;;;5070802;28;20220;-55
2023/10/13 11:24:23;;;;;;;2.15;1.95;;;;;25.50;95815.00;;;;5071693;28;20586;-55
2023/10/13 11:26:52;;;;;;;0.82;0.82;;;;;25.60;95810.00;;;;5072688;28;20278;-55
2023/10/13 11:29:20;;;;;;;0.75;0.75;;;;;25.90;95813.00;;;;5072785;28;20198;-56
2023/10/13 11:31:57;;;;;;;0.93;0.88;;;;;25.80;95804.00;;;;5072541;28;20223;-56
2023/10/13 11:34:25;;;;;;;0.80;0.80;;;;;26.00;95805.00;;;;5072827;28;20194;-57
2023/10/13 11:36:53;;;;;;;1.00;1.00;;;;;26.00;95810.00;;;;5072601;28;20206;-57
2023/10/13 11:39:24;;;;;;;0.60;0.60;;;;;26.20;95776.00;;;;5072578;28;20276;-55
2023/10/13 11:41:54;;;;;;;13.85;1.33;;;;;26.90;95796.00;;;;5072624;28;20294;-55
2023/10/13 11:44:30;;;;;;;1.65;1.55;;;;;26.30;95795.00;;;;5072743;28;20230;-55
2023/10/13 11:47:32;;;;;;;0.70;0.70;;;;;26.90;95788.00;;;;5067918;28;20550;-55
2023/10/13 11:49:58;;;;;;;1.80;1.23;;;;;27.30;95790.00;;;;5071762;28;20292;-55
2023/10/13 11:52:28;;;;;;;1.42;1.27;;;;;27.30;95787.00;;;;5072208;28;20223;-55
2023/10/13 11:54:55;;;;;;;1.58;1.00;;;;;27.30;95780.00;;;;5072787;28;20218;-60
2023/10/13 11:57:24;;;;;;;1.02;0.98;;;;;26.60;95781.00;;;;5071727;28;20210;-60
2023/10/13 11:59:56;;;;;;;0.63;0.63;;;;;27.00;95775.00;;;;5072632;28;20658;-61
2023/10/13 12:05:13;;;;;;;1.98;1.33;;;;;27.40;95772.00;;;;5071219;28;20187;-60
2023/10/13 12:07:48;;;;;;;0.90;0.90;;;;;27.90;95767.00;;;;5071270;28;20191;-60
2023/10/13 12:10:33;;;;;;;1.17;1.17;;;;;28.20;95759.00;;;;5067658;28;20195;-60
2023/10/13 12:13:05;;;;;;;1.05;1.05;;;;;27.90;95762.00;;;;5072430;28;20620;-60
2023/10/13 12:15:51;;;;;;;0.75;0.75;;;;;27.80;95762.00;;;;5071955;28;20203;-60
2023/10/13 12:18:22;;;;;;;1.17;1.17;;;;;27.60;95759.00;;;;5071853;28;20727;-60
2023/10/13 12:20:50;;;;;;;0.70;0.70;;;;;28.40;95745.00;;;;5072109;28;20811;-61
2023/10/13 12:23:20;;;;;;;0.88;0.88;;;;;28.90;95747.00;;;;5072112;28;20219;-60
2023/10/13 12:25:59;;;;;;;3.60;0.80;;;;;28.80;95755.00;;;;5071895;28;20361;-60
2023/10/13 12:28:28;;;;;;;0.93;0.93;;;;;28.90;95747.00;;;;5070965;28;20188;-60
2023/10/13 12:30:58;;;;;;;1.00;1.00;;;;;28.40;95746.00;;;;5071610;28;20199;-61
2023/10/13 12:33:36;;;;;;;0.70;0.70;;;;;28.30;95736.00;;;;5072149;28;20256;-60
2023/10/13 12:36:09;;;;;;;3.72;1.00;;;;;28.80;95735.00;;;;5071735;28;20199;-61
2023/10/13 12:48:55;;;;;;;1.05;1.05;;;;;28.40;95733.00;;;;5072684;28;20679;-61
2023/10/13 12:50:05;;;;;;;0.80;0.80;;;;;28.70;95715.00;;;;5071590;28;20188;-61
2023/10/13 12:52:32;;;;;;;0.80;0.80;;;;;28.90;95702.00;;;;5071962;28;20273;-59
2023/10/13 12:55:06;;;;;;;1.20;1.20;;;;;29.00;95705.00;;;;5071873;28;20202;-62
2023/10/13 12:57:42;;;;;;;1.52;1.05;;;;;29.50;95708.00;;;;5071332;28;20199;-61
2023/10/13 13:00:24;;;;;;;1.95;1.85;;;;;28.90;95708.00;;;;5071609;28;20207;-61
2023/10/13 13:02:55;;;;;;;0.80;0.80;;;;;29.00;95708.00;;;;5071403;28;20706;-61
2023/10/13 13:05:28;;;;;;;0.93;0.90;;;;;28.90;95701.00;;;;5071126;28;20195;-62
2023/10/13 13:07:56;;;;;;;1.10;1.05;;;;;29.70;95685.00;;;;5071401;28;20195;-62
2023/10/13 13:10:35;;;;;;;1.17;1.15;;;;;29.00;95675.00;;;;5070645;28;20597;-61
2023/10/13 13:13:05;;;;;;;1.25;1.15;;;;;29.70;95675.00;;;;5067225;28;20685;-61
2023/10/13 13:15:32;;;;;;;1.25;1.08;;;;;30.00;95667.00;;;;5071489;28;20199;-62
2023/10/13 13:18:09;;;;;;;1.08;0.88;;;;;29.90;95663.00;;;;5070362;28;20291;-61
2023/10/13 13:20:44;;;;;;;2.47;1.45;;;;;29.40;95666.00;;;;5073846;28;20547;-61
2023/10/13 13:23:12;;;;;;;0.90;0.90;;;;;29.60;95652.00;;;;5075220;28;20585;-62
2023/10/13 13:25:42;;;;;;;0.80;0.80;;;;;30.60;95646.00;;;;5075112;28;20203;-63
2023/10/13 13:28:11;;;;;;;0.80;0.80;;;;;29.50;95663.00;;;;5075437;28;20726;-63
2023/10/13 13:30:38;;;;;;;1.35;1.25;;;;;29.90;95661.00;;;;5073929;28;20199;-62
2023/10/13 13:33:11;;;;;;;1.08;1.08;;;;;30.30;95640.00;;;;5074932;28;20215;-61
2023/10/13 13:35:42;;;;;;;1.42;1.35;;;;;31.80;95632.00;;;;5074976;28;20203;-62
2023/10/13 13:38:16;;;;;;;1.25;1.25;;;;;32.40;95631.00;;;;5074602;28;20195;-62
2023/10/13 13:40:48;;;;;;;5.45;1.85;;;;;32.40;95656.00;;;;5074916;28;20215;-62
2023/10/13 13:43:31;;;;;;;0.65;0.65;;;;;29.70;95635.00;;;;5073391;28;20194;-62
2023/10/13 13:46:00;;;;;;;1.10;1.10;;;;;31.60;95636.00;;;;5074637;28;20191;-62
2023/10/13 13:48:28;;;;;;;1.15;1.15;;;;;30.10;95635.00;;;;5073914;28;20249;-61
2023/10/13 13:51:04;;;;;;;1.45;1.20;;;;;30.40;95664.00;;;;5074789;28;20196;-60
2023/10/13 13:53:34;;;;;;;1.05;1.05;;;;;30.00;95624.00;;;;5075161;28;20240;-60
2023/10/13 13:56:03;;;;;;;0.70;0.70;;;;;31.30;95617.00;;;;5074274;28;20188;-60
2023/10/13 13:58:30;;;;;;;1.42;1.33;;;;;32.10;95614.00;;;;5074533;28;20203;-60
2023/10/13 14:01:11;;;;;;;1.25;1.15;;;;;33.10;95613.00;;;;5073726;28;20694;-59
2023/10/13 14:03:44;;;;;;;1.20;1.10;;;;;32.30;95626.00;;;;5074782;28;20601;-60
2023/10/13 14:06:22;;;;;;;2.83;1.27;;;;;33.20;95610.00;;;;5074148;28;20586;-60
2023/10/13 14:08:51;;;;;;;2.47;1.30;;;;;33.30;95629.00;;;;5074685;28;20202;-60
2023/10/13 14:12:25;;;;;;;1.00;1.00;;;;;31.20;95617.00;;;;5074431;28;20219;-60
2023/10/13 14:14:20;;;;;;;1.67;1.60;;;;;33.80;95605.00;;;;5074161;28;20203;-60
2023/10/13 14:16:48;;;;;;;1.00;1.00;;;;;32.30;95630.00;;;;5074406;28;20187;-59
2023/10/13 14:19:26;;;;;;;1.05;1.05;;;;;31.20;95614.00;;;;5070230;28;20200;-59
2023/10/13 14:21:55;;;;;;;1.42;1.33;;;;;31.20;95605.00;;;;5071962;28;20229;-60
2023/10/13 14:24:28;;;;;;;1.27;1.20;;;;;31.80;95607.00;;;;5074333;28;20199;-59
2023/10/13 14:26:55;;;;;;;1.02;1.02;;;;;30.50;95605.00;;;;5072535;28;20195;-60
2023/10/13 14:29:26;;;;;;;2.35;1.55;;;;;31.10;95597.00;;;;5074575;28;20234;-67
2023/10/13 14:31:53;;;;;;;1.77;1.67;;;;;31.60;95598.00;;;;5070868;28;20230;-61
2023/10/13 14:34:21;;;;;;;1.05;1.05;;;;;33.60;95602.00;;;;5074232;28;20203;-60
2023/10/13 14:36:49;;;;;;;0.90;0.90;;;;;34.80;95607.00;;;;5073186;28;20195;-60
2023/10/13 14:39:20;;;;;;;2.28;1.25;;;;;32.40;95609.00;;;;5073866;28;20282;-60
2023/10/13 14:41:48;;;;;;;1.20;1.20;;;;;34.00;95593.00;;;;5072884;28;20226;-59
2023/10/13 14:44:16;;;;;;;0.90;0.90;;;;;34.20;95597.00;;;;5073346;28;20195;-60
2023/10/13 14:46:43;;;;;;;1.23;0.98;;;;;33.90;95592.00;;;;5075236;28;20198;-59
2023/10/13 14:49:14;;;;;;;1.27;1.00;;;;;34.10;95588.00;;;;5075137;28;20187;-59